sensor_id;sensor_type;location;lat;lon;timestamp;pressure;altitude;pressure_sealevel;temperature;humidity
70954;BME280;58618;47.490;8.736;2024-02-23T00:01:51;94854.91;;;5.63;100.00
70954;BME280;58618;47.490;8.736;2024-02-23T00:04:39;94838.28;;;5.46;100.00
70954;BME280;58618;47.490;8.736;2024-02-23T00:07:26;94840.75;;;5.51;100.00
70954;BME280;58618;47.490;8.736;2024-02-23T00:10:13;94846.00;;;5.60;100.00
70954;BME280;58618;47.490;8.736;2024-02-23T00:13:01;94849.31;;;5.61;100.00
70954;BME280;58618;47.490;8.736;2024-02-23T00:15:50;94851.84;;;5.61;100.00
70954;BME280;58618;47.490;8.736;2024-02-23T00:18:37;94836.50;;;5.61;100.00
70954;BME280;58618;47.490;8.736;2024-02-23T00:21:25;94828.94;;;5.56;100.00
70954;BME280;58618;47.490;8.736;2024-02-23T00:24:12;94840.50;;;5.67;100.00
70954;BME280;58618;47.490;8.736;2024-02-23T00:27:00;94842.19;;;5.58;100.00
70954;BME280;58618;47.490;8.736;2024-02-23T00:29:47;94831.78;;;5.54;100.00
70954;BME280;58618;47.490;8.736;2024-02-23T00:32:35;94833.50;;;5.59;100.00
70954;BME280;58618;47.490;8.736;2024-02-23T00:35:23;94832.56;;;5.55;100.00
70954;BME280;58618;47.490;8.736;2024-02-23T00:38:10;94834.03;;;5.56;100.00
70954;BME280;58618;47.490;8.736;2024-02-23T00:40:57;94825.91;;;5.53;100.00
70954;BME280;58618;47.490;8.736;2024-02-23T00:43:45;94821.34;;;5.50;100.00
70954;BME280;58618;47.490;8.736;2024-02-23T00:46:33;94824.78;;;5.60;100.00
70954;BME280;58618;47.490;8.736;2024-02-23T00:49:22;94814.06;;;5.58;100.00
70954;BME280;58618;47.490;8.736;2024-02-23T00:52:09;94818.69;;;5.56;100.00
70954;BME280;58618;47.490;8.736;2024-02-23T00:54:56;94818.16;;;5.59;100.00
70954;BME280;58618;47.490;8.736;2024-02-23T00:57:44;94822.78;;;5.57;100.00
70954;BME280;58618;47.490;8.736;2024-02-23T01:00:31;94833.00;;;5.57;100.00
70954;BME280;58618;47.490;8.736;2024-02-23T01:03:19;94846.38;;;5.53;100.00
70954;BME280;58618;47.490;8.736;2024-02-23T01:06:07;94844.28;;;5.56;100.00
70954;BME280;58618;47.490;8.736;2024-02-23T01:08:55;94842.56;;;5.51;100.00
70954;BME280;58618;47.490;8.736;2024-02-23T01:11:42;94853.09;;;5.49;100.00
70954;BME280;58618;47.490;8.736;2024-02-23T01:14:30;94860.47;;;5.51;100.00
70954;BME280;58618;47.490;8.736;2024-02-23T01:17:17;94866.81;;;5.53;100.00
70954;BME280;58618;47.490;8.736;2024-02-23T01:20:05;94865.13;;;5.63;100.00
70954;BME280;58618;47.490;8.736;2024-02-23T01:22:54;94897.53;;;5.67;100.00
70954;BME280;58618;47.490;8.736;2024-02-23T01:25:41;94907.00;;;5.67;100.00
70954;BME280;58618;47.490;8.736;2024-02-23T01:28:29;94926.19;;;5.50;100.00
70954;BME280;58618;47.490;8.736;2024-02-23T01:31:16;94948.31;;;5.23;100.00
70954;BME280;58618;47.490;8.736;2024-02-23T01:34:04;94945.78;;;4.80;100.00
70954;BME280;58618;47.490;8.736;2024-02-23T01:36:52;94946.81;;;4.55;100.00
70954;BME280;58618;47.490;8.736;2024-02-23T01:39:40;94955.34;;;4.46;100.00
70954;BME280;58618;47.490;8.736;2024-02-23T01:42:28;94938.41;;;4.31;100.00
70954;BME280;58618;47.490;8.736;2024-02-23T01:45:15;94940.75;;;3.99;100.00
70954;BME280;58618;47.490;8.736;2024-02-23T01:48:03;94947.00;;;3.82;100.00
70954;BME280;58618;47.490;8.736;2024-02-23T01:50:50;94936.38;;;3.70;100.00
70954;BME280;58618;47.490;8.736;2024-02-23T01:53:38;94926.31;;;3.55;100.00
70954;BME280;58618;47.490;8.736;2024-02-23T01:56:27;94935.69;;;3.60;100.00
70954;BME280;58618;47.490;8.736;2024-02-23T01:59:14;94930.94;;;3.53;100.00
70954;BME280;58618;47.490;8.736;2024-02-23T02:02:03;94922.78;;;3.51;100.00
70954;BME280;58618;47.490;8.736;2024-02-23T02:04:50;94921.50;;;3.54;100.00
70954;BME280;58618;47.490;8.736;2024-02-23T02:07:38;94902.13;;;3.53;100.00
70954;BME280;58618;47.490;8.736;2024-02-23T02:10:27;94901.38;;;3.52;100.00
70954;BME280;58618;47.490;8.736;2024-02-23T02:13:15;94903.88;;;3.57;100.00
70954;BME280;58618;47.490;8.736;2024-02-23T02:16:03;94888.59;;;3.57;100.00
70954;BME280;58618;47.490;8.736;2024-02-23T02:18:50;94890.53;;;3.65;100.00
70954;BME280;58618;47.490;8.736;2024-02-23T02:21:38;94900.19;;;3.73;100.00
70954;BME280;58618;47.490;8.736;2024-02-23T02:24:26;94880.72;;;3.82;100.00
70954;BME280;58618;47.490;8.736;2024-02-23T02:27:14;94886.34;;;3.79;100.00
70954;BME280;58618;47.490;8.736;2024-02-23T02:30:04;94880.22;;;3.80;100.00
70954;BME280;58618;47.490;8.736;2024-02-23T02:32:51;94857.34;;;3.70;100.00
70954;BME280;58618;47.490;8.736;2024-02-23T02:35:39;94825.34;;;3.59;100.00
70954;BME280;58618;47.490;8.736;2024-02-23T02:38:26;94832.88;;;3.74;100.00
70954;BME280;58618;47.490;8.736;2024-02-23T02:41:14;94831.66;;;3.67;100.00
70954;BME280;58618;47.490;8.736;2024-02-23T02:44:03;94838.78;;;3.70;100.00
70954;BME280;58618;47.490;8.736;2024-02-23T02:46:52;94832.88;;;3.74;100.00
70954;BME280;58618;47.490;8.736;2024-02-23T02:49:40;94838.72;;;3.75;100.00
70954;BME280;58618;47.490;8.736;2024-02-23T02:52:27;94841.53;;;3.73;100.00
70954;BME280;58618;47.490;8.736;2024-02-23T02:55:15;94862.91;;;3.77;100.00
70954;BME280;58618;47.490;8.736;2024-02-23T02:58:02;94845.59;;;3.74;100.00
70954;BME280;58618;47.490;8.736;2024-02-23T03:00:49;94842.91;;;3.90;100.00
70954;BME280;58618;47.490;8.736;2024-02-23T03:03:38;94825.06;;;3.90;100.00
70954;BME280;58618;47.490;8.736;2024-02-23T03:06:26;94813.13;;;3.85;100.00
70954;BME280;58618;47.490;8.736;2024-02-23T03:09:13;94832.88;;;3.98;100.00
70954;BME280;58618;47.490;8.736;2024-02-23T03:12:00;94824.59;;;3.82;100.00
70954;BME280;58618;47.490;8.736;2024-02-23T03:14:48;94835.50;;;3.64;100.00
70954;BME280;58618;47.490;8.736;2024-02-23T03:17:35;94845.50;;;3.56;100.00
70954;BME280;58618;47.490;8.736;2024-02-23T03:20:24;94853.22;;;3.79;100.00
70954;BME280;58618;47.490;8.736;2024-02-23T03:23:11;94855.63;;;3.66;100.00
70954;BME280;58618;47.490;8.736;2024-02-23T03:25:59;94847.78;;;3.57;100.00
70954;BME280;58618;47.490;8.736;2024-02-23T03:28:47;94849.13;;;3.78;100.00
70954;BME280;58618;47.490;8.736;2024-02-23T03:31:34;94847.09;;;3.80;100.00
70954;BME280;58618;47.490;8.736;2024-02-23T03:34:22;94852.91;;;3.81;100.00
70954;BME280;58618;47.490;8.736;2024-02-23T03:37:10;94844.34;;;3.72;100.00
70954;BME280;58618;47.490;8.736;2024-02-23T03:39:58;94843.81;;;3.99;100.00
70954;BME280;58618;47.490;8.736;2024-02-23T03:42:46;94847.53;;;4.11;100.00
70954;BME280;58618;47.490;8.736;2024-02-23T03:45:33;94840.13;;;4.10;100.00
70954;BME280;58618;47.490;8.736;2024-02-23T03:48:20;94836.34;;;3.83;100.00
70954;BME280;58618;47.490;8.736;2024-02-23T03:51:08;94822.56;;;3.85;100.00
70954;BME280;58618;47.490;8.736;2024-02-23T03:53:57;94832.81;;;3.79;100.00
70954;BME280;58618;47.490;8.736;2024-02-23T03:56:44;94839.38;;;3.86;100.00
70954;BME280;58618;47.490;8.736;2024-02-23T03:59:32;94837.19;;;3.74;100.00
70954;BME280;58618;47.490;8.736;2024-02-23T04:02:19;94829.91;;;3.62;100.00
70954;BME280;58618;47.490;8.736;2024-02-23T04:05:07;94815.13;;;3.64;100.00
70954;BME280;58618;47.490;8.736;2024-02-23T04:07:55;94826.13;;;3.83;100.00
70954;BME280;58618;47.490;8.736;2024-02-23T04:10:43;94817.94;;;3.87;100.00
70954;BME280;58618;47.490;8.736;2024-02-23T04:13:31;94815.59;;;3.66;100.00
70954;BME280;58618;47.490;8.736;2024-02-23T04:16:22;94821.22;;;3.63;100.00
70954;BME280;58618;47.490;8.736;2024-02-23T04:19:10;94801.66;;;3.82;100.00
70954;BME280;58618;47.490;8.736;2024-02-23T04:21:57;94809.84;;;3.79;100.00
70954;BME280;58618;47.490;8.736;2024-02-23T04:24:45;94821.03;;;3.83;100.00
70954;BME280;58618;47.490;8.736;2024-02-23T04:27:33;94832.03;;;3.79;100.00
70954;BME280;58618;47.490;8.736;2024-02-23T04:30:21;94827.97;;;3.78;100.00
70954;BME280;58618;47.490;8.736;2024-02-23T04:33:08;94827.31;;;3.67;100.00
70954;BME280;58618;47.490;8.736;2024-02-23T04:35:56;94835.34;;;3.79;100.00
70954;BME280;58618;47.490;8.736;2024-02-23T04:38:43;94837.09;;;3.84;100.00
70954;BME280;58618;47.490;8.736;2024-02-23T04:41:30;94830.38;;;3.69;100.00
70954;BME280;58618;47.490;8.736;2024-02-23T04:44:19;94838.09;;;3.59;100.00
70954;BME280;58618;47.490;8.736;2024-02-23T04:47:06;94825.03;;;3.66;100.00
70954;BME280;58618;47.490;8.736;2024-02-23T04:49:54;94838.47;;;3.71;100.00
70954;BME280;58618;47.490;8.736;2024-02-23T04:52:41;94840.66;;;3.59;100.00
70954;BME280;58618;47.490;8.736;2024-02-23T04:55:28;94855.50;;;3.52;100.00
70954;BME280;58618;47.490;8.736;2024-02-23T04:58:16;94846.69;;;3.68;100.00
70954;BME280;58618;47.490;8.736;2024-02-23T05:01:04;94849.22;;;3.68;100.00
70954;BME280;58618;47.490;8.736;2024-02-23T05:03:52;94833.38;;;3.71;100.00
70954;BME280;58618;47.490;8.736;2024-02-23T05:06:39;94844.25;;;3.82;100.00
70954;BME280;58618;47.490;8.736;2024-02-23T05:09:26;94847.66;;;3.72;100.00
70954;BME280;58618;47.490;8.736;2024-02-23T05:12:14;94834.44;;;3.65;100.00
70954;BME280;58618;47.490;8.736;2024-02-23T05:15:01;94849.22;;;3.68;100.00
70954;BME280;58618;47.490;8.736;2024-02-23T05:17:50;94837.84;;;3.85;100.00
70954;BME280;58618;47.490;8.736;2024-02-23T05:20:37;94846.59;;;3.78;100.00
70954;BME280;58618;47.490;8.736;2024-02-23T05:23:25;94845.97;;;3.87;100.00
70954;BME280;58618;47.490;8.736;2024-02-23T05:26:12;94855.88;;;3.93;100.00
70954;BME280;58618;47.490;8.736;2024-02-23T05:28:59;94848.41;;;4.02;100.00
70954;BME280;58618;47.490;8.736;2024-02-23T05:31:48;94849.59;;;3.86;100.00
70954;BME280;58618;47.490;8.736;2024-02-23T05:34:37;94844.78;;;3.79;100.00
70954;BME280;58618;47.490;8.736;2024-02-23T05:37:24;94850.56;;;3.90;100.00
70954;BME280;58618;47.490;8.736;2024-02-23T05:40:13;94862.28;;;3.91;100.00
70954;BME280;58618;47.490;8.736;2024-02-23T05:43:01;94855.88;;;3.93;100.00
70954;BME280;58618;47.490;8.736;2024-02-23T05:45:48;94849.75;;;3.65;100.00
70954;BME280;58618;47.490;8.736;2024-02-23T05:48:36;94850.84;;;3.59;100.00
70954;BME280;58618;47.490;8.736;2024-02-23T05:51:25;94837.69;;;3.47;100.00
70954;BME280;58618;47.490;8.736;2024-02-23T05:54:12;94843.97;;;3.55;100.00
70954;BME280;58618;47.490;8.736;2024-02-23T05:56:59;94825.00;;;3.42;100.00
70954;BME280;58618;47.490;8.736;2024-02-23T05:59:47;94831.38;;;3.39;100.00
70954;BME280;58618;47.490;8.736;2024-02-23T06:02:34;94826.06;;;3.36;100.00
70954;BME280;58618;47.490;8.736;2024-02-23T06:05:21;94818.41;;;3.36;100.00
70954;BME280;58618;47.490;8.736;2024-02-23T06:08:11;94827.13;;;3.30;100.00
70954;BME280;58618;47.490;8.736;2024-02-23T06:10:58;94828.00;;;3.44;100.00
70954;BME280;58618;47.490;8.736;2024-02-23T06:13:47;94823.56;;;3.31;100.00
70954;BME280;58618;47.490;8.736;2024-02-23T06:16:34;94819.91;;;3.42;100.00
70954;BME280;58618;47.490;8.736;2024-02-23T06:19:25;94827.84;;;3.35;100.00
70954;BME280;58618;47.490;8.736;2024-02-23T06:22:16;94841.56;;;3.39;100.00
70954;BME280;58618;47.490;8.736;2024-02-23T06:25:09;94848.41;;;3.44;100.00
70954;BME280;58618;47.490;8.736;2024-02-23T06:27:58;94838.97;;;3.45;100.00
70954;BME280;58618;47.490;8.736;2024-02-23T06:30:52;94837.59;;;3.57;100.00
70954;BME280;58618;47.490;8.736;2024-02-23T06:33:40;94828.47;;;3.51;100.00
70954;BME280;58618;47.490;8.736;2024-02-23T06:36:27;94822.84;;;3.54;100.00
70954;BME280;58618;47.490;8.736;2024-02-23T06:39:15;94816.75;;;3.50;100.00
70954;BME280;58618;47.490;8.736;2024-02-23T06:42:06;94836.72;;;3.43;100.00
70954;BME280;58618;47.490;8.736;2024-02-23T06:44:53;94828.59;;;3.36;100.00
70954;BME280;58618;47.490;8.736;2024-02-23T06:47:41;94830.47;;;3.25;100.00
70954;BME280;58618;47.490;8.736;2024-02-23T06:50:28;94851.84;;;3.29;100.00
70954;BME280;58618;47.490;8.736;2024-02-23T06:53:15;94861.19;;;3.39;100.00
70954;BME280;58618;47.490;8.736;2024-02-23T06:56:04;94859.69;;;3.38;100.00
70954;BME280;58618;47.490;8.736;2024-02-23T06:58:53;94847.13;;;3.13;100.00
70954;BME280;58618;47.490;8.736;2024-02-23T07:01:48;94850.09;;;3.25;100.00
70954;BME280;58618;47.490;8.736;2024-02-23T07:04:35;94844.03;;;3.21;100.00
70954;BME280;58618;47.490;8.736;2024-02-23T07:07:23;94848.09;;;3.22;100.00
70954;BME280;58618;47.490;8.736;2024-02-23T07:10:10;94860.75;;;3.32;100.00
70954;BME280;58618;47.490;8.736;2024-02-23T07:12:58;94870.47;;;3.59;100.00
70954;BME280;58618;47.490;8.736;2024-02-23T07:15:46;94873.41;;;3.71;100.00
70954;BME280;58618;47.490;8.736;2024-02-23T07:18:34;94854.84;;;3.65;100.00
70954;BME280;58618;47.490;8.736;2024-02-23T07:21:21;94882.22;;;3.83;100.00
70954;BME280;58618;47.490;8.736;2024-02-23T07:24:09;94881.69;;;3.87;100.00
70954;BME280;58618;47.490;8.736;2024-02-23T07:26:57;94885.72;;;3.93;100.00
70954;BME280;58618;47.490;8.736;2024-02-23T07:29:44;94870.09;;;3.99;100.00
70954;BME280;58618;47.490;8.736;2024-02-23T07:32:34;94880.03;;;4.01;100.00
70954;BME280;58618;47.490;8.736;2024-02-23T07:35:21;94877.38;;;4.11;100.00
70954;BME280;58618;47.490;8.736;2024-02-23T07:38:08;94894.84;;;3.99;100.00
70954;BME280;58618;47.490;8.736;2024-02-23T07:40:56;94903.88;;;4.15;100.00
70954;BME280;58618;47.490;8.736;2024-02-23T07:46:51;94908.41;;;4.18;100.00
70954;BME280;58618;47.490;8.736;2024-02-23T07:49:42;94892.69;;;4.11;100.00
70954;BME280;58618;47.490;8.736;2024-02-23T07:52:29;94888.97;;;3.98;100.00
70954;BME280;58618;47.490;8.736;2024-02-23T07:55:17;94900.59;;;4.09;100.00
70954;BME280;58618;47.490;8.736;2024-02-23T07:58:04;94900.81;;;4.13;100.00
70954;BME280;58618;47.490;8.736;2024-02-23T08:00:52;94906.88;;;4.22;100.00
70954;BME280;58618;47.490;8.736;2024-02-23T08:03:40;94895.53;;;4.33;100.00
70954;BME280;58618;47.490;8.736;2024-02-23T08:06:29;94877.03;;;4.41;100.00
70954;BME280;58618;47.490;8.736;2024-02-23T08:09:16;94886.69;;;4.44;100.00
70954;BME280;58618;47.490;8.736;2024-02-23T08:12:05;94889.63;;;4.56;100.00
70954;BME280;58618;47.490;8.736;2024-02-23T08:14:52;94895.94;;;4.64;100.00
70954;BME280;58618;47.490;8.736;2024-02-23T08:17:40;94885.97;;;4.62;100.00
70954;BME280;58618;47.490;8.736;2024-02-23T08:20:27;94893.09;;;4.65;100.00
70954;BME280;58618;47.490;8.736;2024-02-23T08:23:16;94888.97;;;4.70;100.00
70954;BME280;58618;47.490;8.736;2024-02-23T08:26:06;94881.13;;;4.61;100.00
70954;BME280;58618;47.490;8.736;2024-02-23T08:28:53;94871.63;;;4.66;100.00
70954;BME280;58618;47.490;8.736;2024-02-23T08:31:41;94879.41;;;4.56;100.00
70954;BME280;58618;47.490;8.736;2024-02-23T08:34:29;94880.16;;;4.81;100.00
70954;BME280;58618;47.490;8.736;2024-02-23T08:37:16;94891.88;;;4.82;100.00
70954;BME280;58618;47.490;8.736;2024-02-23T08:40:07;94888.97;;;4.70;100.00
70954;BME280;58618;47.490;8.736;2024-02-23T08:42:55;94860.25;;;4.59;100.00
70954;BME280;58618;47.490;8.736;2024-02-23T08:45:43;94878.41;;;4.76;100.00
70954;BME280;58618;47.490;8.736;2024-02-23T08:48:30;94869.44;;;4.79;100.00
70954;BME280;58618;47.490;8.736;2024-02-23T08:51:18;94876.59;;;4.77;100.00
70954;BME280;58618;47.490;8.736;2024-02-23T08:54:05;94884.06;;;4.92;100.00
70954;BME280;58618;47.490;8.736;2024-02-23T08:56:55;94877.66;;;4.76;100.00
70954;BME280;58618;47.490;8.736;2024-02-23T08:59:42;94880.72;;;4.96;100.00
70954;BME280;58618;47.490;8.736;2024-02-23T09:02:30;94878.13;;;5.15;100.00
70954;BME280;58618;47.490;8.736;2024-02-23T09:05:18;94867.09;;;5.01;100.00
70954;BME280;58618;47.490;8.736;2024-02-23T09:08:06;94874.75;;;5.01;100.00
70954;BME280;58618;47.490;8.736;2024-02-23T09:10:54;94868.44;;;5.31;100.00
70954;BME280;58618;47.490;8.736;2024-02-23T09:13:43;94850.81;;;5.29;100.00
70954;BME280;58618;47.490;8.736;2024-02-23T09:16:30;94854.22;;;5.25;100.00
70954;BME280;58618;47.490;8.736;2024-02-23T09:19:18;94875.53;;;5.52;100.00
70954;BME280;58618;47.490;8.736;2024-02-23T09:22:05;94868.91;;;5.51;100.00
70954;BME280;58618;47.490;8.736;2024-02-23T09:24:53;94863.81;;;5.65;100.00
70954;BME280;58618;47.490;8.736;2024-02-23T09:27:42;94868.91;;;5.51;100.00
70954;BME280;58618;47.490;8.736;2024-02-23T09:30:31;94839.72;;;5.52;100.00
70954;BME280;58618;47.490;8.736;2024-02-23T09:33:18;94867.50;;;5.91;100.00
70954;BME280;58618;47.490;8.736;2024-02-23T09:36:06;94883.81;;;5.96;100.00
70954;BME280;58618;47.490;8.736;2024-02-23T09:38:56;94872.19;;;5.84;100.00
70954;BME280;58618;47.490;8.736;2024-02-23T09:41:43;94861.53;;;5.96;100.00
70954;BME280;58618;47.490;8.736;2024-02-23T09:44:32;94854.81;;;6.00;100.00
70954;BME280;58618;47.490;8.736;2024-02-23T09:47:21;94831.09;;;6.08;100.00
70954;BME280;58618;47.490;8.736;2024-02-23T09:50:10;94844.75;;;6.04;100.00
70954;BME280;58618;47.490;8.736;2024-02-23T09:52:59;94799.59;;;5.67;100.00
70954;BME280;58618;47.490;8.736;2024-02-23T09:55:50;94852.16;;;6.05;100.00
70954;BME280;58618;47.490;8.736;2024-02-23T09:58:49;94854.03;;;6.00;100.00
70954;BME280;58618;47.490;8.736;2024-02-23T10:01:46;94851.22;;;6.01;100.00
70954;BME280;58618;47.490;8.736;2024-02-23T10:04:36;94844.19;;;6.20;100.00
70954;BME280;58618;47.490;8.736;2024-02-23T10:07:25;94840.78;;;6.11;100.00
70954;BME280;58618;47.490;8.736;2024-02-23T10:10:12;94829.13;;;6.05;100.00
70954;BME280;58618;47.490;8.736;2024-02-23T10:13:00;94854.81;;;6.27;100.00
70954;BME280;58618;47.490;8.736;2024-02-23T10:15:48;94847.25;;;6.22;100.00
70954;BME280;58618;47.490;8.736;2024-02-23T10:18:37;94845.13;;;6.24;100.00
70954;BME280;58618;47.490;8.736;2024-02-23T10:21:26;94848.38;;;6.16;100.00
70954;BME280;58618;47.490;8.736;2024-02-23T10:24:15;94851.78;;;6.25;100.00
70954;BME280;58618;47.490;8.736;2024-02-23T10:27:03;94845.13;;;6.24;100.00
70954;BME280;58618;47.490;8.736;2024-02-23T10:30:06;94853.47;;;6.30;100.00
70954;BME280;58618;47.490;8.736;2024-02-23T10:32:57;94849.69;;;6.00;100.00
70954;BME280;58618;47.490;8.736;2024-02-23T10:35:46;94809.44;;;5.60;100.00
70954;BME280;58618;47.490;8.736;2024-02-23T10:38:38;94845.84;;;5.84;100.00
70954;BME280;58618;47.490;8.736;2024-02-23T10:41:26;94844.19;;;5.93;100.00
70954;BME280;58618;47.490;8.736;2024-02-23T10:44:16;94832.03;;;5.85;100.00
70954;BME280;58618;47.490;8.736;2024-02-23T10:47:04;94844.19;;;5.93;100.00
70954;BME280;58618;47.490;8.736;2024-02-23T10:49:52;94847.81;;;6.06;100.00
70954;BME280;58618;47.490;8.736;2024-02-23T10:52:41;94857.16;;;6.24;100.00
70954;BME280;58618;47.490;8.736;2024-02-23T10:55:31;94860.22;;;6.12;100.00
70954;BME280;58618;47.490;8.736;2024-02-23T10:58:19;94848.16;;;5.99;100.00
70954;BME280;58618;47.490;8.736;2024-02-23T11:01:08;94849.69;;;6.14;100.00
70954;BME280;58618;47.490;8.736;2024-02-23T11:03:56;94839.81;;;6.34;100.00
70954;BME280;58618;47.490;8.736;2024-02-23T11:06:49;94841.72;;;6.43;100.00
70954;BME280;58618;47.490;8.736;2024-02-23T11:09:36;94851.13;;;6.33;100.00
70954;BME280;58618;47.490;8.736;2024-02-23T11:12:26;94846.94;;;6.38;100.00
70954;BME280;58618;47.490;8.736;2024-02-23T11:15:26;94835.44;;;6.62;100.00
70954;BME280;58618;47.490;8.736;2024-02-23T11:18:23;94845.66;;;6.76;100.00
70954;BME280;58618;47.490;8.736;2024-02-23T11:21:11;94848.13;;;7.03;100.00
70954;BME280;58618;47.490;8.736;2024-02-23T11:24:02;94853.25;;;7.03;100.00
70954;BME280;58618;47.490;8.736;2024-02-23T11:26:56;94840.81;;;7.10;100.00
70954;BME280;58618;47.490;8.736;2024-02-23T11:34:56;94842.56;;;7.24;100.00
70954;BME280;58618;47.490;8.736;2024-02-23T11:37:47;94829.31;;;7.30;100.00
70954;BME280;58618;47.490;8.736;2024-02-23T11:40:38;94832.19;;;7.29;100.00
70954;BME280;58618;47.490;8.736;2024-02-23T11:48:58;94821.88;;;8.69;93.38
70954;BME280;58618;47.490;8.736;2024-02-23T11:51:54;94806.34;;;8.18;92.24
70954;BME280;58618;47.490;8.736;2024-02-23T11:54:42;94801.41;;;7.90;85.68
70954;BME280;58618;47.490;8.736;2024-02-23T11:57:30;94767.31;;;7.98;94.80
70954;BME280;58618;47.490;8.736;2024-02-23T12:00:35;94810.25;;;8.80;93.17
70954;BME280;58618;47.490;8.736;2024-02-23T12:03:39;94799.66;;;8.56;90.92
70954;BME280;58618;47.490;8.736;2024-02-23T12:06:29;94785.38;;;7.76;100.00
70954;BME280;58618;47.490;8.736;2024-02-23T12:12:53;94793.78;;;8.99;87.76
70954;BME280;58618;47.490;8.736;2024-02-23T12:15:42;94795.56;;;8.55;89.73
70954;BME280;58618;47.490;8.736;2024-02-23T12:21:36;94777.91;;;8.88;84.96
70954;BME280;58618;47.490;8.736;2024-02-23T12:24:39;94798.31;;;8.84;84.51
70954;BME280;58618;47.490;8.736;2024-02-23T12:27:27;94777.88;;;8.45;92.81
70954;BME280;58618;47.490;8.736;2024-02-23T12:30:37;94794.66;;;8.51;90.58
70954;BME280;58618;47.490;8.736;2024-02-23T12:33:39;94801.94;;;8.83;90.30
70954;BME280;58618;47.490;8.736;2024-02-23T12:36:28;94778.34;;;8.64;90.41
70954;BME280;58618;47.490;8.736;2024-02-23T12:39:31;94786.50;;;8.58;84.76
70954;BME280;58618;47.490;8.736;2024-02-23T12:42:19;94775.63;;;9.04;79.81
70954;BME280;58618;47.490;8.736;2024-02-23T12:45:07;94776.38;;;9.13;79.31
70954;BME280;58618;47.490;8.736;2024-02-23T12:48:02;94787.41;;;8.70;77.33
70954;BME280;58618;47.490;8.736;2024-02-23T12:50:51;94775.91;;;8.59;80.00
70954;BME280;58618;47.490;8.736;2024-02-23T12:53:40;94767.47;;;8.50;79.14
70954;BME280;58618;47.490;8.736;2024-02-23T12:56:29;94777.72;;;8.84;83.64
70954;BME280;58618;47.490;8.736;2024-02-23T12:59:17;94745.38;;;8.49;84.73
70954;BME280;58618;47.490;8.736;2024-02-23T13:02:06;94756.72;;;8.57;82.10
70954;BME280;58618;47.490;8.736;2024-02-23T13:04:55;94719.19;;;8.21;80.86
70954;BME280;58618;47.490;8.736;2024-02-23T13:07:42;94753.06;;;8.32;76.80
70954;BME280;58618;47.490;8.736;2024-02-23T13:10:30;94747.03;;;8.79;76.22
70954;BME280;58618;47.490;8.736;2024-02-23T13:13:20;94733.66;;;9.29;79.13
70954;BME280;58618;47.490;8.736;2024-02-23T13:16:07;94742.66;;;9.61;83.78
70954;BME280;58618;47.490;8.736;2024-02-23T13:18:55;94734.72;;;9.28;77.43
70954;BME280;58618;47.490;8.736;2024-02-23T13:21:43;94743.25;;;9.58;71.53
70954;BME280;58618;47.490;8.736;2024-02-23T13:24:30;94726.88;;;9.62;71.97
70954;BME280;58618;47.490;8.736;2024-02-23T13:27:20;94742.88;;;10.06;68.75
70954;BME280;58618;47.490;8.736;2024-02-23T13:30:10;94739.53;;;9.38;75.23
70954;BME280;58618;47.490;8.736;2024-02-23T13:32:58;94727.25;;;8.71;71.94
70954;BME280;58618;47.490;8.736;2024-02-23T13:35:46;94731.47;;;8.93;74.35
70954;BME280;58618;47.490;8.736;2024-02-23T13:38:34;94739.03;;;8.98;68.51
70954;BME280;58618;47.490;8.736;2024-02-23T13:41:24;94737.88;;;9.33;69.71
70954;BME280;58618;47.490;8.736;2024-02-23T13:44:11;94723.88;;;8.97;72.92
70954;BME280;58618;47.490;8.736;2024-02-23T13:47:07;94729.50;;;8.81;72.95
70954;BME280;58618;47.490;8.736;2024-02-23T13:49:55;94715.13;;;8.89;71.36
70954;BME280;58618;47.490;8.736;2024-02-23T13:52:43;94722.88;;;8.72;68.11
70954;BME280;58618;47.490;8.736;2024-02-23T13:55:32;94688.22;;;8.69;68.43
70954;BME280;58618;47.490;8.736;2024-02-23T13:58:20;94704.13;;;8.71;67.80
70954;BME280;58618;47.490;8.736;2024-02-23T14:01:08;94691.28;;;8.54;76.68
70954;BME280;58618;47.490;8.736;2024-02-23T14:03:58;94663.28;;;8.18;74.27
70954;BME280;58618;47.490;8.736;2024-02-23T14:06:45;94690.94;;;8.81;76.22
70954;BME280;58618;47.490;8.736;2024-02-23T14:09:33;94665.56;;;8.71;71.55
70954;BME280;58618;47.490;8.736;2024-02-23T14:12:20;94681.25;;;8.78;72.26
70954;BME280;58618;47.490;8.736;2024-02-23T14:15:08;94692.28;;;8.96;77.35
70954;BME280;58618;47.490;8.736;2024-02-23T14:17:59;94678.84;;;8.73;77.44
70954;BME280;58618;47.490;8.736;2024-02-23T14:20:48;94668.13;;;8.11;79.26
70954;BME280;58618;47.490;8.736;2024-02-23T14:23:35;94660.53;;;7.89;84.77
70954;BME280;58618;47.490;8.736;2024-02-23T14:26:23;94687.91;;;8.11;87.74
70954;BME280;58618;47.490;8.736;2024-02-23T14:29:10;94683.00;;;7.83;84.38
70954;BME280;58618;47.490;8.736;2024-02-23T14:31:59;94675.16;;;7.80;87.56
70954;BME280;58618;47.490;8.736;2024-02-23T14:38:32;94670.94;;;7.75;82.34
70954;BME280;58618;47.490;8.736;2024-02-23T14:41:37;94659.09;;;7.57;85.34
70954;BME280;58618;47.490;8.736;2024-02-23T14:44:30;94664.41;;;7.60;85.25
70954;BME280;58618;47.490;8.736;2024-02-23T14:47:18;94674.22;;;7.67;89.46
70954;BME280;58618;47.490;8.736;2024-02-23T14:50:11;94671.69;;;7.84;86.44
70954;BME280;58618;47.490;8.736;2024-02-23T14:53:05;94666.16;;;8.17;90.85
70954;BME280;58618;47.490;8.736;2024-02-23T14:55:56;94652.84;;;7.97;82.42
70954;BME280;58618;47.490;8.736;2024-02-23T14:58:43;94662.06;;;8.16;82.51
70954;BME280;58618;47.490;8.736;2024-02-23T15:01:31;94656.06;;;8.37;85.14
70954;BME280;58618;47.490;8.736;2024-02-23T15:04:29;94651.06;;;8.58;83.22
70954;BME280;58618;47.490;8.736;2024-02-23T15:07:25;94669.66;;;8.64;84.87
70954;BME280;58618;47.490;8.736;2024-02-23T15:10:14;94666.59;;;8.79;83.09
70954;BME280;58618;47.490;8.736;2024-02-23T15:13:04;94645.94;;;8.24;81.62
70954;BME280;58618;47.490;8.736;2024-02-23T15:15:51;94630.81;;;8.48;83.52
70954;BME280;58618;47.490;8.736;2024-02-23T15:18:53;94647.81;;;8.96;76.79
70954;BME280;58618;47.490;8.736;2024-02-23T15:21:44;94657.81;;;8.80;78.98